F\v Tenia — FPMH — position and weather

sailwx.info

Track history (hours):
 
Tides and Currents Weather Stations Pressure Air Temp Water Temp Dewpoint Dewpoint Depression Visibility Wind Speed Wind Dir Waves Ship Positions

F\v Tenia

Last reported at 2016-Apr-27 11:31 UTC. Time now 2016-May-03 18:11 UTC.
Position N 47°35' W 003°41'.

Length 22 m; draft 4 m.

Type: Fishing. MMSI: 227575000.

Date/timePositionNaut miles runAvg speedWind from/ knotsBaromVisibWave heightAir tempDewpointWater temp
2016-Apr-27 11:31N 47°35' W 003°41'8 8.6
2016-Apr-27 10:33N 47°40' W 003°31'7 7.0
2016-Apr-27 09:33N 47°44' W 003°22'0 0.1
2016-Apr-27 08:33N 47°44' W 003°22'0 0.0
2016-Apr-27 07:33N 47°44' W 003°22'0 0.0
2016-Apr-27 06:33N 47°44' W 003°22'0 0.0
2016-Apr-27 05:34N 47°44' W 003°22'6 6.3
2016-Apr-27 04:33N 47°40' W 003°30'9 8.6
2016-Apr-27 03:33N 47°36' W 003°41'  
2016-Apr-20 11:33N 47°37' W 003°44'8 8.5
2016-Apr-20 10:34N 47°39' W 003°32'7 7.5
2016-Apr-20 09:33N 47°43' W 003°22'1 1.2
2016-Apr-20 08:34N 47°44' W 003°22'0 0.0
2016-Apr-20 07:33N 47°44' W 003°22'0 0.0
2016-Apr-20 06:34N 47°44' W 003°22'0 0.0
2016-Apr-20 05:34N 47°44' W 003°22'0 0.0
2016-Apr-20 04:33N 47°44' W 003°22'0 0.1
2016-Apr-20 03:34N 47°44' W 003°22'0 0.2
2016-Apr-20 02:33N 47°44' W 003°22'0 0.0
2016-Apr-20 01:33N 47°44' W 003°22'0 0.0
2016-Apr-20 00:33N 47°44' W 003°22'1 0.6
2016-Apr-19 23:33N 47°43' W 003°22'4 4.2
2016-Apr-19 22:33N 47°39' W 003°23'5 4.5
2016-Apr-19 21:33N 47°35' W 003°26'8 8.0
2016-Apr-19 20:33N 47°30' W 003°35'7 7.5
2016-Apr-19 19:33N 47°24' W 003°42'2 1.5
2016-Apr-19 18:33N 47°23' W 003°41'1 0.9
2016-Apr-19 17:34N 47°22' W 003°40'1 1.1
2016-Apr-19 16:33N 47°22' W 003°42'1 1.1
2016-Apr-19 15:33N 47°23' W 003°43'1 0.8
2016-Apr-19 14:34N 47°22' W 003°43'1 1.3
2016-Apr-19 13:33N 47°22' W 003°41'1 0.7
2016-Apr-19 12:33N 47°22' W 003°42'1 1.1
2016-Apr-19 11:23N 47°23' W 003°43'0 0.4
2016-Apr-19 10:32N 47°23' W 003°44'2 2.2
2016-Apr-19 09:33N 47°23' W 003°41'1 1.4
2016-Apr-19 08:32N 47°23' W 003°38'2 1.8
2016-Apr-19 07:33N 47°23' W 003°41'1 1.5
2016-Apr-19 06:33N 47°23' W 003°39'1 1.2
2016-Apr-19 05:33N 47°23' W 003°41'1 1.2
2016-Apr-19 04:34N 47°23' W 003°42'0 0.5
2016-Apr-19 03:34N 47°23' W 003°43'3 2.9
2016-Apr-19 02:33N 47°23' W 003°47'8 7.9
2016-Apr-19 01:33N 47°22' W 003°59'9 8.3
2016-Apr-19 00:28N 47°21' W 004°12'11 8.6
2016-Apr-18 23:13N 47°20' W 004°28'  
Track history (hours):
 
Tides and Currents Weather Stations Pressure Air Temp Water Temp Dewpoint Dewpoint Depression Visibility Wind Speed Wind Dir Waves Ship Positions

F\v Tenia

Last reported at 2016-Apr-27 11:31 UTC. Time now 2016-May-03 18:11 UTC.
Position N 47°35' W 003°41'.

Length 22 m; draft 4 m.

Type: Fishing. MMSI: 227575000.

Date/timePositionNaut miles runAvg speedWind from/ knotsBaromVisibWave heightAir tempDewpointWater temp
2016-Apr-27 11:31N 47°35' W 003°41'8 8.6
2016-Apr-27 10:33N 47°40' W 003°31'7 7.0
2016-Apr-27 09:33N 47°44' W 003°22'0 0.1
2016-Apr-27 08:33N 47°44' W 003°22'0 0.0
2016-Apr-27 07:33N 47°44' W 003°22'0 0.0
2016-Apr-27 06:33N 47°44' W 003°22'0 0.0
2016-Apr-27 05:34N 47°44' W 003°22'6 6.3
2016-Apr-27 04:33N 47°40' W 003°30'9 8.6
2016-Apr-27 03:33N 47°36' W 003°41'  
2016-Apr-20 11:33N 47°37' W 003°44'8 8.5
2016-Apr-20 10:34N 47°39' W 003°32'7 7.5
2016-Apr-20 09:33N 47°43' W 003°22'1 1.2
2016-Apr-20 08:34N 47°44' W 003°22'0 0.0
2016-Apr-20 07:33N 47°44' W 003°22'0 0.0
2016-Apr-20 06:34N 47°44' W 003°22'0 0.0
2016-Apr-20 05:34N 47°44' W 003°22'0 0.0
2016-Apr-20 04:33N 47°44' W 003°22'0 0.1
2016-Apr-20 03:34N 47°44' W 003°22'0 0.2
2016-Apr-20 02:33N 47°44' W 003°22'0 0.0
2016-Apr-20 01:33N 47°44' W 003°22'0 0.0
2016-Apr-20 00:33N 47°44' W 003°22'1 0.6
2016-Apr-19 23:33N 47°43' W 003°22'4 4.2
2016-Apr-19 22:33N 47°39' W 003°23'5 4.5
2016-Apr-19 21:33N 47°35' W 003°26'8 8.0
2016-Apr-19 20:33N 47°30' W 003°35'7 7.5
2016-Apr-19 19:33N 47°24' W 003°42'2 1.5
2016-Apr-19 18:33N 47°23' W 003°41'1 0.9
2016-Apr-19 17:34N 47°22' W 003°40'1 1.1
2016-Apr-19 16:33N 47°22' W 003°42'1 1.1
2016-Apr-19 15:33N 47°23' W 003°43'1 0.8
2016-Apr-19 14:34N 47°22' W 003°43'1 1.3
2016-Apr-19 13:33N 47°22' W 003°41'1 0.7
2016-Apr-19 12:33N 47°22' W 003°42'1 1.1
2016-Apr-19 11:23N 47°23' W 003°43'0 0.4
2016-Apr-19 10:32N 47°23' W 003°44'2 2.2
2016-Apr-19 09:33N 47°23' W 003°41'1 1.4
2016-Apr-19 08:32N 47°23' W 003°38'2 1.8
2016-Apr-19 07:33N 47°23' W 003°41'1 1.5
2016-Apr-19 06:33N 47°23' W 003°39'1 1.2
2016-Apr-19 05:33N 47°23' W 003°41'1 1.2
2016-Apr-19 04:34N 47°23' W 003°42'0 0.5
2016-Apr-19 03:34N 47°23' W 003°43'3 2.9
2016-Apr-19 02:33N 47°23' W 003°47'8 7.9
2016-Apr-19 01:33N 47°22' W 003°59'9 8.3
2016-Apr-19 00:28N 47°21' W 004°12'11 8.6
2016-Apr-18 23:13N 47°20' W 004°28'  

Dump ship's entire track history